Time;durP1;ratioP1;P1;durP2;ratioP2;P2;SDS_P1;SDS_P2;PMS_P1;PMS_P2;Temp;Humidity;BMP_temperature;BMP_pressure;BME280_temperature;BME280_humidity;BME280_pressure;Samples;Min_cycle;Max_cycle;Signal;HPM_P1;HPM_P2
2022/12/20 05:06:31;;;;;;;29.02;14.50;;;;;;;-1.34;100.00;101985.09;1525985;22;22192;-83
2022/12/20 05:08:57;;;;;;;28.33;15.02;;;;;;;-1.59;100.00;101888.25;5010873;28;20085;-81
2022/12/20 05:11:22;;;;;;;33.92;16.88;;;;;;;-2.15;100.00;101847.03;5012649;28;20061;-82
2022/12/20 05:13:48;;;;;;;29.05;16.25;;;;;;;-1.29;100.00;101984.59;5012424;28;20103;-81
2022/12/20 05:16:13;;;;;;;26.45;15.35;;;;;;;-1.57;100.00;101905.75;5012378;28;20042;-81
2022/12/20 05:18:38;;;;;;;27.55;15.60;;;;;;;-1.77;100.00;101965.41;5012655;28;20451;-76
2022/12/20 05:26:35;;;;;;;29.40;17.10;;;;;;;-1.25;100.00;101893.31;5012843;28;20100;-80
2022/12/20 05:29:01;;;;;;;35.50;22.80;;;;;;;-1.67;100.00;101911.03;4994691;28;20149;-80
2022/12/20 05:31:34;;;;;;;34.83;20.88;;;;;;;-1.01;100.00;101974.38;5012384;28;20547;-78
2022/12/20 05:34:01;;;;;;;40.28;23.52;;;;;;;-1.24;100.00;101944.88;4994825;28;20041;-79
2022/12/20 05:36:27;;;;;;;46.90;24.77;;;;;;;-1.50;100.00;101895.31;5012505;28;20092;-79
2022/12/20 05:38:53;;;;;;;42.38;25.88;;;;;;;-1.28;100.00;101885.66;5012849;28;20508;-77
2022/12/20 05:41:22;;;;;;;35.92;21.67;;;;;;;-1.70;100.00;101874.34;5012999;28;20073;-78
2022/12/20 05:43:48;;;;;;;39.75;23.60;;;;;;;-1.54;100.00;101891.81;4994988;28;20052;-77
2022/12/20 05:46:13;;;;;;;41.22;22.58;;;;;;;-1.46;100.00;101971.97;4993069;28;20121;-78
2022/12/20 05:48:52;;;;;;;44.38;23.88;;;;;;;-1.40;100.00;101969.81;4993173;28;20427;-77
2022/12/20 05:51:17;;;;;;;37.45;20.90;;;;;;;-1.58;100.00;101899.03;4992483;28;20043;-77
2022/12/20 05:53:42;;;;;;;36.55;19.73;;;;;;;-1.58;100.00;101941.41;4993145;28;20097;-78
2022/12/20 05:56:08;;;;;;;37.40;20.35;;;;;;;-1.78;100.00;101913.84;5003473;28;20034;-77
2022/12/20 05:58:33;;;;;;;35.17;18.70;;;;;;;-1.19;100.00;101989.22;5007670;28;20038;-75
2022/12/20 06:01:01;;;;;;;31.30;17.13;;;;;;;-1.28;100.00;102002.88;4993816;28;20065;-77
2022/12/20 06:03:26;;;;;;;31.35;16.30;;;;;;;-1.81;100.00;101920.28;5012458;28;20553;-79
2022/12/20 06:06:02;;;;;;;28.15;16.17;;;;;;;-1.51;100.00;101998.31;5012125;28;20121;-76
2022/12/20 06:08:28;;;;;;;27.67;16.25;;;;;;;-2.33;100.00;101863.47;5011987;28;20050;-76
2022/12/20 06:10:53;;;;;;;31.70;16.38;;;;;;;-1.42;100.00;101919.00;5012174;28;20089;-78
2022/12/20 06:13:19;;;;;;;29.33;16.38;;;;;;;-1.79;100.00;101907.16;5011463;28;20049;-76
2022/12/20 06:15:45;;;;;;;37.05;18.80;;;;;;;-1.38;100.00;101910.91;4994284;28;20046;-77
2022/12/20 06:18:10;;;;;;;35.30;18.77;;;;;;;-0.80;100.00;101990.41;5011980;28;20046;-77
2022/12/20 06:20:36;;;;;;;34.80;20.23;;;;;;;-1.55;100.00;101887.63;5011935;28;20050;-76
2022/12/20 06:23:21;;;;;;;49.25;27.85;;;;;;;-0.75;100.00;101971.50;5012303;28;20034;-77
2022/12/20 06:25:47;;;;;;;43.35;25.85;;;;;;;-1.85;100.00;101827.09;5016252;28;20532;-77
2022/12/20 06:28:12;;;;;;;47.17;30.92;;;;;;;0.36;100.00;101893.50;5015770;28;20038;-77
2022/12/20 06:30:39;;;;;;;40.03;26.00;;;;;;;2.20;100.00;101961.22;4997583;28;20041;-77
2022/12/20 06:33:04;;;;;;;48.78;29.42;;;;;;;1.53;100.00;101959.38;4997376;28;21053;-77
2022/12/20 06:35:30;;;;;;;54.63;34.13;;;;;;;1.42;100.00;101970.63;5014288;28;20531;-76
2022/12/20 06:37:56;;;;;;;44.15;25.35;;;;;;;1.94;100.00;101925.94;5030824;28;20042;-75
2022/12/20 06:40:21;;;;;;;38.67;20.67;;;;;;;1.67;100.00;101919.03;5015392;28;20041;-76
2022/12/20 06:42:48;;;;;;;35.50;21.98;;;;;;;2.61;100.00;101823.00;4998125;28;20034;-77
2022/12/20 06:45:13;;;;;;;35.42;18.95;;;;;;;2.96;100.00;101964.00;5031134;28;20042;-76
2022/12/20 06:47:39;;;;;;;34.00;18.52;;;;;;;3.88;100.00;101944.44;5014097;28;20048;-76
2022/12/20 06:50:05;;;;;;;35.85;18.50;;;;;;;3.70;100.00;101896.94;4998048;28;20034;-74
2022/12/20 06:52:31;;;;;;;31.45;17.48;;;;;;;3.59;100.00;101955.22;4996629;28;20056;-74
2022/12/20 06:54:56;;;;;;;907.55;124.20;;;;;;;6.24;100.00;101865.69;5010327;28;20492;-77
2022/12/20 06:57:22;;;;;;;382.52;59.05;;;;;;;5.84;100.00;101809.31;5003398;28;20117;-76
2022/12/20 06:59:47;;;;;;;515.15;71.63;;;;;;;6.86;100.00;101926.69;4999342;28;20037;-76
2022/12/20 07:02:14;;;;;;;379.23;62.42;;;;;;;3.52;100.00;101946.66;4994391;28;20039;-79
2022/12/20 07:04:40;;;;;;;84.63;25.10;;;;;;;0.67;100.00;101974.09;4996992;28;20165;-78
2022/12/20 07:07:05;;;;;;;352.30;49.10;;;;;;;1.95;100.00;101888.38;5013422;28;20145;-78
2022/12/20 07:09:31;;;;;;;158.60;33.00;;;;;;;1.09;100.00;101951.72;4997331;28;20037;-77
2022/12/20 07:12:06;;;;;;;346.65;47.83;;;;;;;2.65;100.00;101927.75;5015393;28;20157;-78
2022/12/20 07:14:32;;;;;;;295.45;40.42;;;;;;;1.20;100.00;101880.38;5014800;28;20068;-76
2022/12/20 07:16:57;;;;;;;221.52;32.92;;;;;;;0.84;100.00;101817.16;5008869;28;20089;-79
2022/12/20 07:19:23;;;;;;;138.05;27.80;;;;;;;1.60;100.00;101873.66;5001661;28;20416;-79
2022/12/20 07:21:48;;;;;;;93.00;25.58;;;;;;;1.15;100.00;101962.81;4994717;28;20514;-78
2022/12/20 07:24:14;;;;;;;197.27;31.58;;;;;;;3.48;100.00;101952.38;4994942;28;20073;-78
2022/12/20 07:26:39;;;;;;;130.68;25.30;;;;;;;1.56;100.00;101817.56;4994867;28;20428;-80
2022/12/20 07:29:05;;;;;;;109.95;23.17;;;;;;;1.67;100.00;101948.25;4993778;28;20074;-78
2022/12/20 07:31:30;;;;;;;68.13;18.38;;;;;;;0.56;100.00;101939.38;4993833;28;20062;-78
2022/12/20 07:33:56;;;;;;;106.45;22.25;;;;;;;1.35;100.00;101879.34;4977562;28;20458;-78
2022/12/20 07:36:21;;;;;;;27.50;16.42;;;;;;;1.36;100.00;101948.69;4977418;28;20046;-76
2022/12/20 07:38:47;;;;;;;28.17;17.98;;;;;;;0.71;100.00;101875.84;4977861;28;20125;-77
2022/12/20 07:41:17;;;;;;;31.92;17.52;;;;;;;0.70;100.00;101776.56;4977576;28;20064;-80
2022/12/20 07:43:42;;;;;;;28.80;16.88;;;;;;;0.84;100.00;101942.28;4994820;28;20448;-77
2022/12/20 07:46:10;;;;;;;31.35;18.42;;;;;;;0.82;100.00;101933.88;4994798;28;20042;-77
2022/12/20 07:48:36;;;;;;;29.15;17.15;;;;;;;1.77;100.00;101947.81;4993638;28;20042;-76
2022/12/20 07:51:08;;;;;;;30.63;17.80;;;;;;;0.92;100.00;101863.38;4993728;28;20042;-76
2022/12/20 07:53:39;;;;;;;26.05;15.30;;;;;;;1.02;100.00;101949.72;4994436;28;20191;-78
2022/12/20 07:56:07;;;;;;;27.50;15.88;;;;;;;1.39;100.00;101943.78;4977040;28;20072;-75
2022/12/20 07:58:35;;;;;;;28.55;16.45;;;;;;;0.87;100.00;101880.69;4994278;28;20042;-77
2022/12/20 08:01:01;;;;;;;28.13;17.30;;;;;;;0.76;100.00;101871.91;4994502;28;20042;-78
2022/12/20 08:03:35;;;;;;;29.65;17.17;;;;;;;0.26;100.00;101950.56;4994492;28;20041;-77
2022/12/20 08:06:04;;;;;;;35.50;18.75;;;;;;;0.54;100.00;101773.34;4977045;28;20038;-77
2022/12/20 08:08:36;;;;;;;36.10;22.17;;;;;;;1.24;100.00;101875.56;4976483;28;20088;-76
2022/12/20 08:11:05;;;;;;;33.60;19.42;;;;;;;1.02;100.00;101960.59;4977233;28;20038;-76
2022/12/20 08:13:32;;;;;;;30.25;19.85;;;;;;;0.81;100.00;101882.13;5010009;28;20496;-76
2022/12/20 08:15:59;;;;;;;36.28;22.42;;;;;;;1.05;100.00;101870.59;5011234;28;20045;-77
2022/12/20 08:18:24;;;;;;;31.10;18.23;;;;;;;1.28;100.00;101842.31;4995517;28;20045;-77
2022/12/20 08:20:50;;;;;;;28.02;17.13;;;;;;;1.25;100.00;101858.88;5012156;28;20033;-76
2022/12/20 08:23:16;;;;;;;26.70;17.08;;;;;;;1.34;100.00;101852.59;4996248;28;20054;-82
2022/12/20 08:25:41;;;;;;;34.30;19.80;;;;;;;1.15;100.00;101930.25;5014034;28;20484;-77
2022/12/20 08:28:06;;;;;;;34.72;21.70;;;;;;;0.60;100.00;101846.16;4995803;28;20216;-76
2022/12/20 08:30:32;;;;;;;36.10;22.63;;;;;;;0.95;100.00;101852.66;4996195;28;20427;-77
2022/12/20 08:32:57;;;;;;;38.30;24.92;;;;;;;0.99;100.00;101845.28;5014307;28;20038;-77
2022/12/20 08:35:23;;;;;;;33.38;21.42;;;;;;;1.58;100.00;101921.22;5013535;28;20030;-78
2022/12/20 08:37:51;;;;;;;32.17;20.80;;;;;;;0.95;100.00;101848.50;5013275;28;20037;-78
2022/12/20 08:40:18;;;;;;;34.38;22.20;;;;;;;0.50;100.00;101852.44;4995927;28;20053;-77
2022/12/20 08:42:43;;;;;;;35.17;21.20;;;;;;;1.43;100.00;101920.59;5013137;28;20045;-76
2022/12/20 08:45:09;;;;;;;30.23;19.10;;;;;;;0.31;100.00;101779.91;4996112;28;20498;-78
2022/12/20 08:47:34;;;;;;;33.53;19.95;;;;;;;1.08;100.00;101910.78;5012608;28;20442;-78
2022/12/20 08:50:00;;;;;;;28.65;17.75;;;;;;;0.47;100.00;101801.41;4995608;28;20048;-78
2022/12/20 08:52:28;;;;;;;36.28;21.55;;;;;;;1.67;100.00;101914.03;5012456;28;20499;-79
2022/12/20 08:54:53;;;;;;;29.48;19.73;;;;;;;1.09;100.00;101914.97;5013209;28;20042;-77
2022/12/20 08:57:22;;;;;;;30.15;17.88;;;;;;;0.96;100.00;101837.69;5012798;28;20038;-77
2022/12/20 08:59:47;;;;;;;30.65;17.27;;;;;;;1.03;100.00;101807.06;4995282;28;20049;-76
2022/12/20 09:02:13;;;;;;;25.58;17.05;;;;;;;1.77;100.00;101868.47;4995817;28;20487;-78
2022/12/20 09:04:38;;;;;;;23.20;14.40;;;;;;;1.73;100.00;101884.19;5012518;28;20042;-77
2022/12/20 09:07:03;;;;;;;23.92;13.70;;;;;;;1.64;100.00;101881.31;4999322;28;20073;-77
2022/12/20 09:09:29;;;;;;;25.08;14.25;;;;;;;1.40;100.00;101825.28;4993229;28;20125;-78
2022/12/20 09:11:56;;;;;;;24.77;15.85;;;;;;;1.76;100.00;101875.94;4993646;28;20030;-78
2022/12/20 09:14:21;;;;;;;24.63;15.10;;;;;;;1.94;100.00;101856.56;4993510;28;20038;-78
2022/12/20 09:16:48;;;;;;;25.17;15.77;;;;;;;1.94;100.00;101818.09;4975787;28;20038;-78
2022/12/20 09:19:15;;;;;;;38.10;21.23;;;;;;;2.00;100.00;101785.72;4992719;28;20037;-77
2022/12/20 09:21:40;;;;;;;26.60;16.60;;;;;;;2.32;100.00;101846.25;4993153;28;20500;-77
2022/12/20 09:24:06;;;;;;;27.98;18.50;;;;;;;2.50;100.00;101849.41;4992003;28;20137;-76
2022/12/20 09:26:34;;;;;;;28.88;17.67;;;;;;;2.02;100.00;101752.38;4976076;28;20117;-78
2022/12/20 09:29:00;;;;;;;25.75;16.90;;;;;;;2.62;100.00;101836.44;4992794;28;20038;-77
2022/12/20 09:31:26;;;;;;;23.52;15.65;;;;;;;2.37;100.00;101756.97;5005939;28;20120;-76
2022/12/20 09:33:56;;;;;;;22.45;14.57;;;;;;;2.61;100.00;101810.47;5011248;28;20124;-76
2022/12/20 09:36:23;;;;;;;23.75;14.32;;;;;;;2.92;100.00;101821.53;4993305;28;20077;-76
2022/12/20 09:38:49;;;;;;;24.13;14.80;;;;;;;3.16;100.00;101808.09;4995020;28;20088;-76
2022/12/20 09:41:30;;;;;;;26.73;16.27;;;;;;;3.16;100.00;101815.63;4994634;28;20042;-74
2022/12/20 09:43:58;;;;;;;22.63;14.17;;;;;;;3.11;100.00;101814.63;5011810;28;20132;-75
2022/12/20 09:46:25;;;;;;;23.92;15.30;;;;;;;3.31;100.00;101808.56;4994532;28;20041;-76
2022/12/20 09:48:51;;;;;;;18.75;12.82;;;;;;;3.02;100.00;101784.19;5012174;28;20068;-78
2022/12/20 09:51:26;;;;;;;20.30;13.38;;;;;;;3.28;100.00;101792.53;5012236;28;20038;-75
2022/12/20 09:53:54;;;;;;;19.67;13.50;;;;;;;3.58;100.00;101788.44;5012226;28;20042;-76
2022/12/20 09:56:25;;;;;;;24.30;13.68;;;;;;;3.57;100.00;101795.91;4994576;28;20577;-75
2022/12/20 09:59:10;;;;;;;124.93;62.72;;;;;;;3.71;100.00;101772.03;4995243;28;20038;-75
2022/12/20 10:01:36;;;;;;;38.80;23.35;;;;;;;3.33;100.00;101708.94;5000888;28;20045;-76
2022/12/20 10:04:05;;;;;;;171.98;26.42;;;;;;;5.73;100.00;101751.84;5014380;28;20436;-77
2022/12/20 10:06:49;;;;;;;20.50;12.35;;;;;;;3.87;100.00;101771.66;5015045;28;20439;-76
2022/12/20 10:10:00;;;;;;;19.80;11.65;;;;;;;4.18;100.00;101775.06;5012433;28;20042;-78
2022/12/20 10:12:46;;;;;;;24.40;15.35;;;;;;;3.01;100.00;101599.13;5015724;28;20037;-75
2022/12/20 10:15:17;;;;;;;24.70;19.00;;;;;;;4.38;100.00;101761.34;5015163;28;20038;-76
2022/12/20 10:18:23;;;;;;;55.65;46.13;;;;;;;4.50;100.00;101753.22;5015822;28;20079;-75
2022/12/20 10:21:15;;;;;;;20.35;14.02;;;;;;;4.46;100.00;101761.53;5015837;28;20037;-78
2022/12/20 10:24:11;;;;;;;20.77;13.55;;;;;;;4.48;100.00;101759.06;5015193;28;20084;-75
2022/12/20 10:26:36;;;;;;;23.90;13.32;;;;;;;3.72;100.00;101625.38;5007520;28;20037;-76
2022/12/20 10:29:03;;;;;;;24.50;12.90;;;;;;;4.14;100.00;101669.25;4995723;28;20045;-77
2022/12/20 10:31:28;;;;;;;35.97;20.95;;;;;;;4.32;100.00;101689.81;4996002;28;20157;-75
2022/12/20 10:33:56;;;;;;;20.13;12.52;;;;;;;4.44;100.00;101717.84;4995347;28;20125;-76
2022/12/20 10:36:30;;;;;;;18.75;11.40;;;;;;;4.73;100.00;101752.16;4996159;28;20579;-75
2022/12/20 10:38:57;;;;;;;17.00;12.30;;;;;;;4.44;100.00;101680.06;4978430;28;20069;-78
2022/12/20 10:41:26;;;;;;;18.77;12.73;;;;;;;4.87;100.00;101748.25;5009049;28;20191;-76
2022/12/20 10:43:58;;;;;;;16.08;9.50;;;;;;;4.85;100.00;101749.06;5013286;28;20084;-75
2022/12/20 10:46:36;;;;;;;15.02;9.38;;;;;;;4.94;100.00;101729.13;4996987;28;20038;-75
2022/12/20 10:49:32;;;;;;;12.85;8.38;;;;;;;5.40;100.00;101730.97;5030172;28;20129;-74
2022/12/20 10:52:07;;;;;;;30.73;19.92;;;;;;;5.41;100.00;101727.66;4991266;28;20084;-75
2022/12/20 10:54:37;;;;;;;10.70;5.82;;;;;;;5.18;100.00;101734.72;5015116;28;20100;-76
2022/12/20 10:57:13;;;;;;;21.25;13.82;;;;;;;5.25;100.00;101717.22;5014145;28;20037;-76
2022/12/20 10:59:43;;;;;;;10.20;5.22;;;;;;;5.45;100.00;101724.38;5015073;28;20056;-76
2022/12/20 11:02:25;;;;;;;29.40;22.17;;;;;;;5.17;100.00;101717.88;5015252;28;20072;-76
2022/12/20 11:05:22;;;;;;;12.15;6.50;;;;;;;5.45;100.00;101709.25;4997892;28;20038;-75
2022/12/20 11:07:55;;;;;;;6.07;3.65;;;;;;;5.16;100.00;101713.66;5012881;28;20045;-77
2022/12/20 11:10:24;;;;;;;10.00;4.65;;;;;;;5.43;100.00;101708.38;5014414;28;20439;-77
2022/12/20 11:12:57;;;;;;;10.38;5.10;;;;;;;4.99;100.00;101624.25;5014457;28;20500;-76
2022/12/20 11:15:28;;;;;;;22.30;17.40;;;;;;;5.66;100.00;101700.44;5014464;28;20453;-78
2022/12/20 11:18:08;;;;;;;21.02;10.50;;;;;;;4.52;100.00;101524.13;5015145;28;20060;-75
2022/12/20 11:20:48;;;;;;;19.45;8.98;;;;;;;5.63;100.00;101694.47;5013603;28;20118;-76
2022/12/20 11:23:22;;;;;;;11.70;6.63;;;;;;;4.62;100.00;101566.31;5015268;28;20066;-76
2022/12/20 11:25:50;;;;;;;7.47;4.47;;;;;;;5.29;100.00;101693.78;5014754;28;20041;-75
2022/12/20 11:28:48;;;;;;;9.85;6.03;;;;;;;5.28;100.00;101687.06;4997013;28;20092;-76
2022/12/20 11:31:35;;;;;;;6.90;3.95;;;;;;;5.33;100.00;101684.59;5014207;28;20499;-78
2022/12/20 11:34:07;;;;;;;6.20;4.25;;;;;;;4.67;100.00;101545.47;5014423;28;20462;-76
2022/12/20 11:36:46;;;;;;;9.50;4.00;;;;;;;5.40;100.00;101671.31;5014693;28;20072;-78
2022/12/20 11:39:43;;;;;;;24.17;11.70;;;;;;;5.59;100.00;101668.34;5013441;28;20096;-79
2022/12/20 11:42:25;;;;;;;14.07;6.35;;;;;;;5.48;100.00;101671.47;4981587;28;20504;-79
2022/12/20 11:45:12;;;;;;;69.78;26.02;;;;;;;4.97;100.00;101530.97;5014568;28;20044;-79
2022/12/20 11:47:54;;;;;;;7.13;4.30;;;;;;;5.50;100.00;101659.75;5014575;28;20038;-79
2022/12/20 11:50:41;;;;;;;7.72;4.38;;;;;;;5.65;100.00;101660.03;4997138;28;20049;-78
2022/12/20 11:53:15;;;;;;;6.30;4.05;;;;;;;5.72;100.00;101642.53;5014276;28;20084;-78
2022/12/20 11:55:43;;;;;;;8.57;4.43;;;;;;;5.64;100.00;101630.59;4995684;28;20065;-78
2022/12/20 11:58:21;;;;;;;7.38;4.55;;;;;;;5.56;100.00;101620.38;5013880;28;20073;-78
2022/12/20 12:00:55;;;;;;;11.13;5.38;;;;;;;5.68;100.00;101630.69;5014076;28;20041;-78
2022/12/20 12:03:37;;;;;;;6.78;4.07;;;;;;;5.71;100.00;101639.97;4997579;28;20050;-79
2022/12/20 12:06:15;;;;;;;12.32;6.75;;;;;;;5.16;100.00;101547.31;4997098;28;20045;-78
2022/12/20 12:09:14;;;;;;;16.23;8.25;;;;;;;5.80;100.00;101595.56;5013254;28;20574;-76
2022/12/20 12:11:46;;;;;;;41.47;24.77;;;;;;;5.05;100.00;101460.56;5007953;28;20046;-77
2022/12/20 12:14:25;;;;;;;18.55;9.90;;;;;;;5.29;100.00;101562.69;5003474;28;20042;-76
2022/12/20 12:16:55;;;;;;;17.88;9.93;;;;;;;6.09;100.00;101616.28;5012426;28;20137;-75
2022/12/20 12:19:25;;;;;;;35.63;18.50;;;;;;;5.58;100.00;101540.53;5013726;28;20044;-77
2022/12/20 12:22:04;;;;;;;10.27;7.55;;;;;;;5.73;100.00;101608.91;4995642;28;20069;-77
2022/12/20 12:24:41;;;;;;;12.32;8.77;;;;;;;5.38;100.00;101530.91;5011347;28;20129;-76
2022/12/20 12:27:19;;;;;;;8.80;4.47;;;;;;;5.42;100.00;101552.81;5004672;28;20046;-79
2022/12/20 12:29:44;;;;;;;36.42;28.38;;;;;;;5.47;100.00;101553.78;5012059;28;20057;-75
2022/12/20 12:32:18;;;;;;;13.07;5.93;;;;;;;5.75;100.00;101535.75;4994283;28;20038;-77
2022/12/20 12:34:58;;;;;;;10.43;8.10;;;;;;;6.19;100.00;101615.63;4993804;28;20046;-76
2022/12/20 12:37:34;;;;;;;7.60;4.07;;;;;;;6.09;100.00;101596.09;4976007;28;20047;-74
2022/12/20 12:40:22;;;;;;;37.75;16.33;;;;;;;6.00;100.00;101613.63;4976460;28;20045;-76
2022/12/20 12:43:26;;;;;;;13.93;7.35;;;;;;;5.84;100.00;101621.75;4993671;28;20181;-75
2022/12/20 12:45:58;;;;;;;5.47;3.63;;;;;;;5.48;100.00;101538.66;4946984;28;20128;-75
2022/12/20 12:48:35;;;;;;;12.52;7.18;;;;;;;5.99;100.00;101610.25;4987387;28;20056;-76
2022/12/20 12:51:02;;;;;;;12.75;8.18;;;;;;;5.88;100.00;101575.56;4995099;28;20128;-76
2022/12/20 12:53:53;;;;;;;8.32;5.07;;;;;;;6.09;100.00;101609.56;5012764;28;20038;-75
2022/12/20 12:56:25;;;;;;;8.80;5.20;;;;;;;5.94;100.00;101598.38;4994934;28;20050;-74
2022/12/20 12:59:06;;;;;;;7.88;5.13;;;;;;;6.11;100.00;101605.41;5012699;28;20304;-75
2022/12/20 13:01:48;;;;;;;9.10;5.28;;;;;;;5.89;100.00;101607.53;5028448;28;20045;-76
2022/12/20 13:04:18;;;;;;;7.65;4.70;;;;;;;5.63;100.00;101527.97;4994828;28;20068;-75
2022/12/20 13:06:55;;;;;;;8.85;4.90;;;;;;;5.67;100.00;101578.50;5028099;28;20038;-76
2022/12/20 13:09:27;;;;;;;6.97;4.57;;;;;;;5.83;100.00;101607.38;5012509;28;20492;-76
2022/12/20 13:11:57;;;;;;;10.13;4.72;;;;;;;5.79;100.00;101610.69;5012777;28;20073;-77
2022/12/20 13:14:26;;;;;;;30.67;14.35;;;;;;;5.94;100.00;101593.31;4992276;28;20073;-78
2022/12/20 13:17:04;;;;;;;20.20;11.68;;;;;;;5.93;100.00;101584.03;4991928;28;20038;-76
2022/12/20 13:19:37;;;;;;;7.75;4.75;;;;;;;5.86;100.00;101599.91;4992213;28;20112;-78
2022/12/20 13:22:13;;;;;;;7.53;3.75;;;;;;;5.70;100.00;101593.72;4991480;28;20038;-79
2022/12/20 13:24:52;;;;;;;9.88;5.15;;;;;;;5.79;100.00;101587.97;4991440;28;20046;-77
2022/12/20 13:27:37;;;;;;;12.27;4.53;;;;;;;5.71;100.00;101592.03;4992349;28;20038;-76
2022/12/20 13:30:12;;;;;;;10.75;5.60;;;;;;;5.69;100.00;101588.63;4990005;28;20038;-76
2022/12/20 13:32:46;;;;;;;6.63;4.40;;;;;;;5.82;100.00;101588.03;4992475;28;20471;-78
2022/12/20 13:35:43;;;;;;;7.97;5.20;;;;;;;5.94;100.00;101581.53;4994593;28;20408;-76
2022/12/20 13:38:11;;;;;;;10.43;6.55;;;;;;;5.81;100.00;101576.22;4999199;28;20128;-77
2022/12/20 13:40:50;;;;;;;17.05;8.95;;;;;;;5.23;100.00;101491.13;5011993;28;20046;-74
2022/12/20 13:43:19;;;;;;;12.35;6.80;;;;;;;5.67;100.00;101565.03;5004573;28;20034;-74
2022/12/20 13:45:51;;;;;;;10.30;5.18;;;;;;;5.12;100.00;101470.78;4974912;28;20045;-76
2022/12/20 13:48:24;;;;;;;12.27;6.00;;;;;;;5.70;100.00;101565.97;4992081;28;20042;-76
2022/12/20 13:50:53;;;;;;;8.02;4.35;;;;;;;5.72;100.00;101566.00;5011022;28;20057;-76
2022/12/20 13:53:28;;;;;;;10.70;5.03;;;;;;;5.33;100.00;101487.94;5011685;28;20120;-74
2022/12/20 13:55:54;;;;;;;9.77;6.18;;;;;;;5.69;100.00;101555.81;5008306;28;20049;-75
2022/12/20 13:58:26;;;;;;;10.95;5.95;;;;;;;5.22;100.00;101469.28;4993862;28;20045;-77
2022/12/20 14:00:53;;;;;;;9.90;5.20;;;;;;;5.18;100.00;101459.97;4993314;28;20049;-76
2022/12/20 14:03:27;;;;;;;20.25;8.57;;;;;;;5.15;100.00;101452.38;5011400;28;20046;-76
2022/12/20 14:06:13;;;;;;;39.90;21.58;;;;;;;5.73;100.00;101523.13;4994798;28;20038;-77
2022/12/20 14:08:48;;;;;;;56.85;30.98;;;;;;;5.71;100.00;101534.00;4994162;28;20443;-75
2022/12/20 14:11:21;;;;;;;15.68;8.68;;;;;;;5.12;100.00;101439.69;5011939;28;20060;-75
2022/12/20 14:13:54;;;;;;;22.45;13.38;;;;;;;5.85;100.00;101532.59;5011704;28;20034;-74
2022/12/20 14:16:20;;;;;;;41.88;21.90;;;;;;;5.27;100.00;101458.44;5011435;28;20042;-75
2022/12/20 14:18:49;;;;;;;58.30;34.70;;;;;;;5.92;100.00;101510.00;5010081;28;20053;-76
2022/12/20 14:21:16;;;;;;;32.17;21.65;;;;;;;5.70;100.00;101514.66;5010500;28;20042;-78
2022/12/20 14:23:49;;;;;;;26.92;17.02;;;;;;;4.58;100.00;101356.41;5002196;28;20034;-77
2022/12/20 14:26:18;;;;;;;20.33;14.05;;;;;;;5.26;100.00;101456.75;4991916;28;20042;-77
2022/12/20 14:28:49;;;;;;;19.98;10.95;;;;;;;5.46;100.00;101496.59;4974166;28;20046;-75
2022/12/20 14:31:37;;;;;;;19.25;11.27;;;;;;;5.57;100.00;101500.97;4990063;28;20073;-76
2022/12/20 14:34:15;;;;;;;22.25;14.45;;;;;;;5.44;100.00;101509.19;4991783;28;20031;-77
2022/12/20 14:36:50;;;;;;;33.42;19.40;;;;;;;5.31;100.00;101503.91;4979637;28;20038;-77
2022/12/20 14:39:31;;;;;;;29.55;19.25;;;;;;;4.90;100.00;101419.97;4991782;28;20112;-77
2022/12/20 14:41:59;;;;;;;27.08;16.17;;;;;;;4.73;100.00;101407.06;4974033;28;20037;-77
2022/12/20 14:44:26;;;;;;;23.58;13.40;;;;;;;4.50;100.00;101415.84;5000242;28;20109;-77
2022/12/20 14:46:55;;;;;;;27.90;13.27;;;;;;;5.15;100.00;101495.22;5013207;28;20034;-75
2022/12/20 14:49:35;;;;;;;95.72;18.48;;;;;;;6.49;100.00;101462.00;5014655;28;20516;-76
2022/12/20 14:52:14;;;;;;;116.07;18.67;;;;;;;5.77;100.00;101382.72;4996927;28;20049;-77
2022/12/20 14:54:57;;;;;;;32.70;13.32;;;;;;;5.05;100.00;101468.97;5013452;28;20042;-78
2022/12/20 14:57:29;;;;;;;24.25;11.95;;;;;;;4.77;100.00;101476.00;5014393;28;20133;-76
2022/12/20 15:00:05;;;;;;;25.10;12.57;;;;;;;4.61;100.00;101468.94;5012785;28;20100;-77
2022/12/20 15:02:39;;;;;;;42.75;14.60;;;;;;;4.90;100.00;101456.09;5015663;28;20038;-75
2022/12/20 15:05:32;;;;;;;30.88;14.63;;;;;;;4.71;100.00;101451.53;4997911;28;20041;-77
2022/12/20 15:08:21;;;;;;;35.47;18.60;;;;;;;4.38;100.00;101453.34;5015275;28;20053;-77
2022/12/20 15:10:55;;;;;;;66.90;31.33;;;;;;;4.39;100.00;101450.03;5014669;28;20034;-76
2022/12/20 15:13:25;;;;;;;70.90;30.98;;;;;;;5.82;100.00;101348.31;4997204;28;20165;-76
2022/12/20 15:15:52;;;;;;;66.88;31.95;;;;;;;4.27;100.00;101440.56;5015469;28;20151;-78
2022/12/20 15:18:19;;;;;;;64.65;32.30;;;;;;;4.18;100.00;101395.06;4997073;28;20053;-78
2022/12/20 15:20:48;;;;;;;64.60;34.92;;;;;;;4.34;100.00;101434.81;5013797;28;20041;-78
2022/12/20 15:23:19;;;;;;;100.95;48.38;;;;;;;3.86;100.00;101357.47;5014209;28;20100;-78
2022/12/20 15:25:46;;;;;;;115.25;55.25;;;;;;;4.02;100.00;101364.53;5015415;28;20138;-77
2022/12/20 15:28:18;;;;;;;115.13;57.08;;;;;;;4.26;100.00;101408.66;5014902;28;20506;-76
2022/12/20 15:30:45;;;;;;;108.57;55.92;;;;;;;3.72;100.00;101348.78;5030543;28;20052;-77
2022/12/20 15:33:20;;;;;;;99.53;54.25;;;;;;;4.08;100.00;101428.38;5014930;28;20056;-77
2022/12/20 15:35:46;;;;;;;93.53;51.92;;;;;;;3.79;100.00;101366.56;5013962;28;20044;-78
2022/12/20 15:38:17;;;;;;;91.57;53.38;;;;;;;4.18;100.00;101425.25;5030774;28;20065;-77
2022/12/20 15:40:44;;;;;;;100.90;51.78;;;;;;;3.68;100.00;101362.97;5015378;28;20038;-79
2022/12/20 15:43:15;;;;;;;76.32;30.70;;;;;;;5.23;100.00;101428.97;5013610;28;20034;-77
2022/12/20 15:45:43;;;;;;;96.82;52.08;;;;;;;3.77;100.00;101413.44;5015199;28;20061;-78
2022/12/20 15:48:20;;;;;;;88.53;45.92;;;;;;;3.57;100.00;101376.09;5015230;28;20580;-79
2022/12/20 15:51:14;;;;;;;69.60;29.73;;;;;;;5.51;100.00;101434.44;5014864;28;20085;-79
2022/12/20 15:53:40;;;;;;;89.35;47.53;;;;;;;3.67;100.00;101411.53;5029969;28;20033;-79
2022/12/20 15:56:20;;;;;;;73.23;43.40;;;;;;;3.74;100.00;101442.72;4321190;28;10021528;-79
2022/12/20 15:58:46;;;;;;;68.97;37.92;;;;;;;2.95;100.00;101320.19;4995245;28;20072;-82
2022/12/20 16:01:26;;;;;;;65.03;37.53;;;;;;;3.73;100.00;101435.97;5013882;28;20038;-81
2022/12/20 16:03:52;;;;;;;61.53;37.97;;;;;;;3.25;100.00;101368.66;4995584;28;20048;-81
2022/12/20 16:06:17;;;;;;;62.50;36.75;;;;;;;3.04;100.00;101317.06;4995054;28;20133;-81
2022/12/20 16:08:44;;;;;;;68.07;38.10;;;;;;;3.11;100.00;101361.63;5013203;28;20516;-81
2022/12/20 16:11:18;;;;;;;79.88;44.92;;;;;;;3.57;100.00;101438.94;4996028;28;20037;-80
2022/12/20 16:13:44;;;;;;;84.10;48.20;;;;;;;3.11;100.00;101361.63;5013399;28;20076;-82
2022/12/20 16:16:26;;;;;;;77.43;45.15;;;;;;;2.90;100.00;101359.41;4994753;28;20050;-82
2022/12/20 16:18:52;;;;;;;70.25;42.40;;;;;;;2.90;100.00;101363.59;5012135;28;20045;-81
2022/12/20 16:21:42;;;;;;;68.00;41.17;;;;;;;2.83;100.00;101370.13;5011256;28;20034;-83
2022/12/20 16:24:11;;;;;;;71.50;41.42;;;;;;;2.78;100.00;101356.59;4993886;28;20042;-79
2022/12/20 16:26:37;;;;;;;68.82;41.00;;;;;;;2.84;100.00;101368.44;5000896;28;20038;-79
2022/12/20 16:29:02;;;;;;;58.75;38.28;;;;;;;3.22;100.00;101431.41;5004206;28;20139;-80
2022/12/20 16:31:31;;;;;;;68.13;39.67;;;;;;;2.72;100.00;101353.94;5011142;28;20042;-79
2022/12/20 16:33:59;;;;;;;68.00;42.00;;;;;;;2.93;100.00;101427.28;5009384;28;20037;-79
2022/12/20 16:36:24;;;;;;;70.28;46.17;;;;;;;2.36;100.00;101331.22;5002353;28;20076;-79
2022/12/20 16:38:51;;;;;;;64.57;43.42;;;;;;;2.40;100.00;101353.06;5007322;28;20037;-81
2022/12/20 16:41:26;;;;;;;60.78;40.83;;;;;;;3.28;100.00;101425.69;5011079;28;20070;-81